sensor_id;sensor_type;location;lat;lon;timestamp;P1;durP1;ratioP1;P2;durP2;ratioP2
20653;SDS011;21083;50.898;4.902;2024-02-04T00:00:47;19.08;;;9.57;;
20653;SDS011;21083;50.898;4.902;2024-02-04T00:03:15;22.67;;;10.43;;
20653;SDS011;21083;50.898;4.902;2024-02-04T00:05:42;18.08;;;8.73;;
20653;SDS011;21083;50.898;4.902;2024-02-04T00:08:11;18.45;;;9.20;;
20653;SDS011;21083;50.898;4.902;2024-02-04T00:10:41;19.95;;;8.75;;
20653;SDS011;21083;50.898;4.902;2024-02-04T00:13:09;18.58;;;8.75;;
20653;SDS011;21083;50.898;4.902;2024-02-04T00:15:37;18.45;;;8.50;;
20653;SDS011;21083;50.898;4.902;2024-02-04T00:18:05;21.52;;;7.85;;
20653;SDS011;21083;50.898;4.902;2024-02-04T00:20:33;18.23;;;7.70;;
20653;SDS011;21083;50.898;4.902;2024-02-04T00:23:00;18.70;;;8.40;;
20653;SDS011;21083;50.898;4.902;2024-02-04T00:25:28;17.45;;;8.65;;
20653;SDS011;21083;50.898;4.902;2024-02-04T00:27:56;16.70;;;8.27;;
20653;SDS011;21083;50.898;4.902;2024-02-04T00:30:23;16.23;;;7.43;;
20653;SDS011;21083;50.898;4.902;2024-02-04T00:32:51;13.70;;;6.45;;
20653;SDS011;21083;50.898;4.902;2024-02-04T00:35:20;18.08;;;7.13;;
20653;SDS011;21083;50.898;4.902;2024-02-04T00:37:47;14.10;;;6.32;;
20653;SDS011;21083;50.898;4.902;2024-02-04T00:40:14;15.35;;;6.78;;
20653;SDS011;21083;50.898;4.902;2024-02-04T00:42:43;17.33;;;7.20;;
20653;SDS011;21083;50.898;4.902;2024-02-04T00:45:11;12.88;;;6.20;;
20653;SDS011;21083;50.898;4.902;2024-02-04T00:47:38;16.17;;;7.05;;
20653;SDS011;21083;50.898;4.902;2024-02-04T00:50:06;13.48;;;6.90;;
20653;SDS011;21083;50.898;4.902;2024-02-04T00:52:34;14.00;;;5.70;;
20653;SDS011;21083;50.898;4.902;2024-02-04T00:55:02;11.85;;;6.20;;
20653;SDS011;21083;50.898;4.902;2024-02-04T00:57:29;12.90;;;5.93;;
20653;SDS011;21083;50.898;4.902;2024-02-04T00:59:58;14.77;;;5.50;;
20653;SDS011;21083;50.898;4.902;2024-02-04T01:02:25;12.27;;;5.43;;
20653;SDS011;21083;50.898;4.902;2024-02-04T01:04:52;15.30;;;5.78;;
20653;SDS011;21083;50.898;4.902;2024-02-04T01:07:20;9.45;;;4.53;;
20653;SDS011;21083;50.898;4.902;2024-02-04T01:09:47;11.73;;;4.72;;
20653;SDS011;21083;50.898;4.902;2024-02-04T01:12:15;11.40;;;5.20;;
20653;SDS011;21083;50.898;4.902;2024-02-04T01:14:42;15.60;;;5.63;;
20653;SDS011;21083;50.898;4.902;2024-02-04T01:17:11;12.68;;;4.93;;
20653;SDS011;21083;50.898;4.902;2024-02-04T01:19:38;14.93;;;5.57;;
20653;SDS011;21083;50.898;4.902;2024-02-04T01:22:05;10.00;;;4.32;;
20653;SDS011;21083;50.898;4.902;2024-02-04T01:24:33;11.02;;;4.57;;
20653;SDS011;21083;50.898;4.902;2024-02-04T01:27:00;10.50;;;4.55;;
20653;SDS011;21083;50.898;4.902;2024-02-04T01:29:27;12.82;;;5.22;;
20653;SDS011;21083;50.898;4.902;2024-02-04T01:31:55;12.30;;;4.85;;
20653;SDS011;21083;50.898;4.902;2024-02-04T01:34:22;12.02;;;4.88;;
20653;SDS011;21083;50.898;4.902;2024-02-04T01:36:50;12.68;;;5.28;;
20653;SDS011;21083;50.898;4.902;2024-02-04T01:39:17;11.68;;;4.72;;
20653;SDS011;21083;50.898;4.902;2024-02-04T01:41:45;12.63;;;4.82;;
20653;SDS011;21083;50.898;4.902;2024-02-04T01:44:12;9.80;;;4.93;;
20653;SDS011;21083;50.898;4.902;2024-02-04T01:46:41;12.27;;;4.60;;
20653;SDS011;21083;50.898;4.902;2024-02-04T01:49:09;12.00;;;4.97;;
20653;SDS011;21083;50.898;4.902;2024-02-04T01:51:38;12.52;;;4.65;;
20653;SDS011;21083;50.898;4.902;2024-02-04T01:54:06;13.00;;;5.40;;
20653;SDS011;21083;50.898;4.902;2024-02-04T01:56:35;10.95;;;5.05;;
20653;SDS011;21083;50.898;4.902;2024-02-04T01:59:03;9.07;;;4.65;;
20653;SDS011;21083;50.898;4.902;2024-02-04T02:01:30;11.43;;;4.70;;
20653;SDS011;21083;50.898;4.902;2024-02-04T02:03:58;12.15;;;5.38;;
20653;SDS011;21083;50.898;4.902;2024-02-04T02:06:28;13.15;;;5.25;;
20653;SDS011;21083;50.898;4.902;2024-02-04T02:08:56;14.55;;;5.30;;
20653;SDS011;21083;50.898;4.902;2024-02-04T02:11:30;15.90;;;5.20;;
20653;SDS011;21083;50.898;4.902;2024-02-04T02:14:04;12.13;;;5.40;;
20653;SDS011;21083;50.898;4.902;2024-02-04T02:16:35;13.05;;;5.95;;
20653;SDS011;21083;50.898;4.902;2024-02-04T02:19:04;12.07;;;5.25;;
20653;SDS011;21083;50.898;4.902;2024-02-04T02:21:50;15.88;;;5.22;;
20653;SDS011;21083;50.898;4.902;2024-02-04T02:24:35;10.55;;;5.47;;
20653;SDS011;21083;50.898;4.902;2024-02-04T02:27:04;11.52;;;5.85;;
20653;SDS011;21083;50.898;4.902;2024-02-04T02:29:32;13.10;;;5.18;;
20653;SDS011;21083;50.898;4.902;2024-02-04T02:31:59;12.65;;;5.40;;
20653;SDS011;21083;50.898;4.902;2024-02-04T02:34:28;14.25;;;6.15;;
20653;SDS011;21083;50.898;4.902;2024-02-04T02:36:57;14.20;;;6.10;;
20653;SDS011;21083;50.898;4.902;2024-02-04T02:39:31;12.60;;;5.43;;
20653;SDS011;21083;50.898;4.902;2024-02-04T02:42:04;14.93;;;5.60;;
20653;SDS011;21083;50.898;4.902;2024-02-04T02:44:32;12.43;;;6.20;;
20653;SDS011;21083;50.898;4.902;2024-02-04T02:47:01;16.92;;;6.03;;
20653;SDS011;21083;50.898;4.902;2024-02-04T02:49:29;13.43;;;5.97;;
20653;SDS011;21083;50.898;4.902;2024-02-04T02:51:56;16.25;;;6.55;;
20653;SDS011;21083;50.898;4.902;2024-02-04T02:54:24;11.75;;;5.85;;
20653;SDS011;21083;50.898;4.902;2024-02-04T02:56:51;15.57;;;6.50;;
20653;SDS011;21083;50.898;4.902;2024-02-04T02:59:19;15.80;;;6.45;;
20653;SDS011;21083;50.898;4.902;2024-02-04T03:01:47;13.43;;;7.20;;
20653;SDS011;21083;50.898;4.902;2024-02-04T03:04:14;18.77;;;7.03;;
20653;SDS011;21083;50.898;4.902;2024-02-04T03:06:41;15.80;;;6.78;;
20653;SDS011;21083;50.898;4.902;2024-02-04T03:09:09;15.60;;;6.90;;
20653;SDS011;21083;50.898;4.902;2024-02-04T03:11:36;17.73;;;7.97;;
20653;SDS011;21083;50.898;4.902;2024-02-04T03:14:03;18.10;;;8.68;;
20653;SDS011;21083;50.898;4.902;2024-02-04T03:16:32;14.65;;;7.38;;
20653;SDS011;21083;50.898;4.902;2024-02-04T03:19:00;26.42;;;8.13;;
20653;SDS011;21083;50.898;4.902;2024-02-04T03:21:31;19.33;;;7.18;;
20653;SDS011;21083;50.898;4.902;2024-02-04T03:23:58;16.45;;;7.15;;
20653;SDS011;21083;50.898;4.902;2024-02-04T03:26:26;18.23;;;8.02;;
20653;SDS011;21083;50.898;4.902;2024-02-04T03:28:53;21.83;;;8.13;;
20653;SDS011;21083;50.898;4.902;2024-02-04T03:31:20;20.10;;;7.70;;
20653;SDS011;21083;50.898;4.902;2024-02-04T03:33:49;19.63;;;8.00;;
20653;SDS011;21083;50.898;4.902;2024-02-04T03:36:18;17.45;;;7.95;;
20653;SDS011;21083;50.898;4.902;2024-02-04T03:38:47;21.35;;;8.48;;
20653;SDS011;21083;50.898;4.902;2024-02-04T03:41:14;17.05;;;7.57;;
20653;SDS011;21083;50.898;4.902;2024-02-04T03:43:42;19.90;;;8.02;;
20653;SDS011;21083;50.898;4.902;2024-02-04T03:46:12;17.58;;;8.18;;
20653;SDS011;21083;50.898;4.902;2024-02-04T03:48:40;21.00;;;8.35;;
20653;SDS011;21083;50.898;4.902;2024-02-04T03:51:08;19.95;;;8.40;;
20653;SDS011;21083;50.898;4.902;2024-02-04T03:53:43;21.67;;;8.68;;
20653;SDS011;21083;50.898;4.902;2024-02-04T03:56:10;18.00;;;8.40;;
20653;SDS011;21083;50.898;4.902;2024-02-04T03:58:38;20.95;;;8.90;;
20653;SDS011;21083;50.898;4.902;2024-02-04T04:01:05;22.15;;;8.45;;
20653;SDS011;21083;50.898;4.902;2024-02-04T04:03:35;23.00;;;9.40;;
20653;SDS011;21083;50.898;4.902;2024-02-04T04:06:12;24.05;;;9.07;;
20653;SDS011;21083;50.898;4.902;2024-02-04T04:08:39;22.88;;;7.75;;
20653;SDS011;21083;50.898;4.902;2024-02-04T04:11:07;26.08;;;8.23;;
20653;SDS011;21083;50.898;4.902;2024-02-04T04:13:35;20.08;;;7.45;;
20653;SDS011;21083;50.898;4.902;2024-02-04T04:16:03;19.33;;;7.40;;
20653;SDS011;21083;50.898;4.902;2024-02-04T04:18:31;18.60;;;7.72;;
20653;SDS011;21083;50.898;4.902;2024-02-04T04:20:59;16.98;;;7.60;;
20653;SDS011;21083;50.898;4.902;2024-02-04T04:23:27;21.83;;;8.30;;
20653;SDS011;21083;50.898;4.902;2024-02-04T04:25:55;21.00;;;6.90;;
20653;SDS011;21083;50.898;4.902;2024-02-04T04:28:22;20.35;;;7.85;;
20653;SDS011;21083;50.898;4.902;2024-02-04T04:30:50;16.17;;;6.65;;
20653;SDS011;21083;50.898;4.902;2024-02-04T04:33:19;22.67;;;9.05;;
20653;SDS011;21083;50.898;4.902;2024-02-04T04:35:46;18.00;;;7.22;;
20653;SDS011;21083;50.898;4.902;2024-02-04T04:38:13;20.70;;;7.03;;
20653;SDS011;21083;50.898;4.902;2024-02-04T04:40:48;17.80;;;6.82;;
20653;SDS011;21083;50.898;4.902;2024-02-04T04:43:15;19.33;;;6.60;;
20653;SDS011;21083;50.898;4.902;2024-02-04T04:45:43;18.27;;;6.95;;
20653;SDS011;21083;50.898;4.902;2024-02-04T04:48:10;18.83;;;6.97;;
20653;SDS011;21083;50.898;4.902;2024-02-04T04:50:37;16.58;;;6.85;;
20653;SDS011;21083;50.898;4.902;2024-02-04T04:53:06;14.85;;;6.13;;
20653;SDS011;21083;50.898;4.902;2024-02-04T04:55:34;16.25;;;7.55;;
20653;SDS011;21083;50.898;4.902;2024-02-04T04:58:03;15.75;;;7.43;;
20653;SDS011;21083;50.898;4.902;2024-02-04T05:00:31;16.95;;;6.28;;
20653;SDS011;21083;50.898;4.902;2024-02-04T05:02:58;27.17;;;7.47;;
20653;SDS011;21083;50.898;4.902;2024-02-04T05:05:25;16.90;;;6.40;;
20653;SDS011;21083;50.898;4.902;2024-02-04T05:07:52;16.10;;;6.35;;
20653;SDS011;21083;50.898;4.902;2024-02-04T05:10:20;14.80;;;6.20;;
20653;SDS011;21083;50.898;4.902;2024-02-04T05:12:48;13.23;;;5.88;;
20653;SDS011;21083;50.898;4.902;2024-02-04T05:15:17;18.35;;;6.95;;
20653;SDS011;21083;50.898;4.902;2024-02-04T05:17:46;13.25;;;5.35;;
20653;SDS011;21083;50.898;4.902;2024-02-04T05:20:13;12.40;;;4.97;;
20653;SDS011;21083;50.898;4.902;2024-02-04T05:22:41;16.98;;;6.05;;
20653;SDS011;21083;50.898;4.902;2024-02-04T05:25:08;12.90;;;5.57;;
20653;SDS011;21083;50.898;4.902;2024-02-04T05:27:36;14.90;;;5.82;;
20653;SDS011;21083;50.898;4.902;2024-02-04T05:30:04;13.30;;;5.90;;
20653;SDS011;21083;50.898;4.902;2024-02-04T05:32:33;13.32;;;5.43;;
20653;SDS011;21083;50.898;4.902;2024-02-04T05:35:00;11.15;;;4.38;;
20653;SDS011;21083;50.898;4.902;2024-02-04T05:37:28;11.80;;;5.15;;
20653;SDS011;21083;50.898;4.902;2024-02-04T05:39:55;10.50;;;4.43;;
20653;SDS011;21083;50.898;4.902;2024-02-04T05:42:22;11.02;;;4.20;;
20653;SDS011;21083;50.898;4.902;2024-02-04T05:44:50;11.05;;;4.13;;
20653;SDS011;21083;50.898;4.902;2024-02-04T05:47:17;12.32;;;4.75;;
20653;SDS011;21083;50.898;4.902;2024-02-04T05:49:46;12.27;;;4.68;;
20653;SDS011;21083;50.898;4.902;2024-02-04T05:52:14;14.43;;;5.22;;
20653;SDS011;21083;50.898;4.902;2024-02-04T05:54:41;12.48;;;3.90;;
20653;SDS011;21083;50.898;4.902;2024-02-04T05:57:09;11.32;;;4.18;;
20653;SDS011;21083;50.898;4.902;2024-02-04T05:59:38;10.68;;;3.97;;
20653;SDS011;21083;50.898;4.902;2024-02-04T06:02:05;12.10;;;4.53;;
20653;SDS011;21083;50.898;4.902;2024-02-04T06:04:32;15.60;;;5.00;;
20653;SDS011;21083;50.898;4.902;2024-02-04T06:07:03;14.73;;;5.50;;
20653;SDS011;21083;50.898;4.902;2024-02-04T06:09:31;13.55;;;4.38;;
20653;SDS011;21083;50.898;4.902;2024-02-04T06:11:59;11.23;;;4.75;;
20653;SDS011;21083;50.898;4.902;2024-02-04T06:14:26;12.77;;;4.95;;
20653;SDS011;21083;50.898;4.902;2024-02-04T06:16:53;15.73;;;4.38;;
20653;SDS011;21083;50.898;4.902;2024-02-04T06:19:21;13.50;;;5.15;;
20653;SDS011;21083;50.898;4.902;2024-02-04T06:21:48;13.15;;;4.30;;
20653;SDS011;21083;50.898;4.902;2024-02-04T06:24:17;14.75;;;5.18;;
20653;SDS011;21083;50.898;4.902;2024-02-04T06:26:46;14.88;;;5.22;;
20653;SDS011;21083;50.898;4.902;2024-02-04T06:29:13;12.50;;;5.20;;
20653;SDS011;21083;50.898;4.902;2024-02-04T06:31:43;20.65;;;6.72;;
20653;SDS011;21083;50.898;4.902;2024-02-04T06:34:11;18.40;;;6.32;;
20653;SDS011;21083;50.898;4.902;2024-02-04T06:36:41;21.27;;;6.95;;
20653;SDS011;21083;50.898;4.902;2024-02-04T06:39:10;20.80;;;6.93;;
20653;SDS011;21083;50.898;4.902;2024-02-04T06:41:38;17.40;;;6.30;;
20653;SDS011;21083;50.898;4.902;2024-02-04T06:44:06;22.50;;;7.68;;
20653;SDS011;21083;50.898;4.902;2024-02-04T06:46:33;23.58;;;7.05;;
20653;SDS011;21083;50.898;4.902;2024-02-04T06:49:00;19.98;;;7.50;;
20653;SDS011;21083;50.898;4.902;2024-02-04T06:51:27;22.40;;;7.28;;
20653;SDS011;21083;50.898;4.902;2024-02-04T06:53:55;20.77;;;7.65;;
20653;SDS011;21083;50.898;4.902;2024-02-04T06:56:22;24.55;;;7.45;;
20653;SDS011;21083;50.898;4.902;2024-02-04T06:58:51;21.23;;;7.68;;
20653;SDS011;21083;50.898;4.902;2024-02-04T07:01:18;20.23;;;6.70;;
20653;SDS011;21083;50.898;4.902;2024-02-04T07:03:45;16.75;;;6.97;;
20653;SDS011;21083;50.898;4.902;2024-02-04T07:06:13;17.83;;;6.20;;
20653;SDS011;21083;50.898;4.902;2024-02-04T07:08:40;18.48;;;6.15;;
20653;SDS011;21083;50.898;4.902;2024-02-04T07:11:07;16.80;;;6.80;;
20653;SDS011;21083;50.898;4.902;2024-02-04T07:13:34;21.60;;;6.82;;
20653;SDS011;21083;50.898;4.902;2024-02-04T07:16:03;12.75;;;5.65;;
20653;SDS011;21083;50.898;4.902;2024-02-04T07:18:31;19.77;;;6.28;;
20653;SDS011;21083;50.898;4.902;2024-02-04T07:20:58;14.57;;;5.85;;
20653;SDS011;21083;50.898;4.902;2024-02-04T07:23:25;16.80;;;5.68;;
20653;SDS011;21083;50.898;4.902;2024-02-04T07:25:52;22.00;;;6.30;;
20653;SDS011;21083;50.898;4.902;2024-02-04T07:28:20;16.00;;;5.68;;
20653;SDS011;21083;50.898;4.902;2024-02-04T07:30:47;18.27;;;6.20;;
20653;SDS011;21083;50.898;4.902;2024-02-04T07:33:16;14.38;;;5.70;;
20653;SDS011;21083;50.898;4.902;2024-02-04T07:35:43;14.93;;;6.70;;
20653;SDS011;21083;50.898;4.902;2024-02-04T07:38:10;18.60;;;6.57;;
20653;SDS011;21083;50.898;4.902;2024-02-04T07:40:38;22.95;;;7.20;;
20653;SDS011;21083;50.898;4.902;2024-02-04T07:43:05;14.70;;;6.43;;
20653;SDS011;21083;50.898;4.902;2024-02-04T07:45:33;19.17;;;6.18;;
20653;SDS011;21083;50.898;4.902;2024-02-04T07:48:01;17.38;;;6.57;;
20653;SDS011;21083;50.898;4.902;2024-02-04T07:50:30;20.15;;;6.47;;
20653;SDS011;21083;50.898;4.902;2024-02-04T07:52:57;22.83;;;6.93;;
20653;SDS011;21083;50.898;4.902;2024-02-04T07:55:24;21.48;;;7.85;;
20653;SDS011;21083;50.898;4.902;2024-02-04T07:57:52;22.38;;;7.38;;
20653;SDS011;21083;50.898;4.902;2024-02-04T08:00:19;19.00;;;7.18;;
20653;SDS011;21083;50.898;4.902;2024-02-04T08:02:46;18.38;;;7.47;;
20653;SDS011;21083;50.898;4.902;2024-02-04T08:05:14;22.48;;;7.68;;
20653;SDS011;21083;50.898;4.902;2024-02-04T08:07:43;23.73;;;8.77;;
20653;SDS011;21083;50.898;4.902;2024-02-04T08:10:10;20.63;;;7.82;;
20653;SDS011;21083;50.898;4.902;2024-02-04T08:12:38;20.73;;;8.02;;
20653;SDS011;21083;50.898;4.902;2024-02-04T08:15:05;20.10;;;8.90;;
20653;SDS011;21083;50.898;4.902;2024-02-04T08:17:33;19.73;;;7.75;;
20653;SDS011;21083;50.898;4.902;2024-02-04T08:20:00;19.25;;;8.43;;
20653;SDS011;21083;50.898;4.902;2024-02-04T08:22:29;24.52;;;8.48;;
20653;SDS011;21083;50.898;4.902;2024-02-04T08:24:57;19.42;;;8.27;;
20653;SDS011;21083;50.898;4.902;2024-02-04T08:27:26;19.80;;;7.53;;
20653;SDS011;21083;50.898;4.902;2024-02-04T08:29:54;19.02;;;7.55;;
20653;SDS011;21083;50.898;4.902;2024-02-04T08:32:21;18.45;;;7.47;;
20653;SDS011;21083;50.898;4.902;2024-02-04T08:34:49;24.33;;;8.43;;
20653;SDS011;21083;50.898;4.902;2024-02-04T08:37:16;17.50;;;6.63;;
20653;SDS011;21083;50.898;4.902;2024-02-04T08:39:45;21.23;;;6.75;;
20653;SDS011;21083;50.898;4.902;2024-02-04T08:42:14;19.58;;;6.22;;
20653;SDS011;21083;50.898;4.902;2024-02-04T08:44:42;17.60;;;6.78;;
20653;SDS011;21083;50.898;4.902;2024-02-04T08:47:10;15.57;;;6.57;;
20653;SDS011;21083;50.898;4.902;2024-02-04T08:49:39;20.67;;;6.40;;
20653;SDS011;21083;50.898;4.902;2024-02-04T08:52:07;19.55;;;6.30;;
20653;SDS011;21083;50.898;4.902;2024-02-04T08:54:34;19.60;;;6.40;;
20653;SDS011;21083;50.898;4.902;2024-02-04T08:57:02;17.98;;;5.97;;
20653;SDS011;21083;50.898;4.902;2024-02-04T08:59:31;17.17;;;5.32;;
20653;SDS011;21083;50.898;4.902;2024-02-04T09:01:58;11.85;;;4.57;;
20653;SDS011;21083;50.898;4.902;2024-02-04T09:04:25;10.93;;;5.40;;
20653;SDS011;21083;50.898;4.902;2024-02-04T09:06:53;17.17;;;4.53;;
20653;SDS011;21083;50.898;4.902;2024-02-04T09:09:20;14.52;;;5.07;;
20653;SDS011;21083;50.898;4.902;2024-02-04T09:11:49;15.10;;;4.78;;
20653;SDS011;21083;50.898;4.902;2024-02-04T09:14:17;12.85;;;4.75;;
20653;SDS011;21083;50.898;4.902;2024-02-04T09:16:45;12.38;;;4.63;;
20653;SDS011;21083;50.898;4.902;2024-02-04T09:19:13;17.70;;;5.15;;
20653;SDS011;21083;50.898;4.902;2024-02-04T09:21:40;18.05;;;4.78;;
20653;SDS011;21083;50.898;4.902;2024-02-04T09:24:09;13.13;;;5.13;;
20653;SDS011;21083;50.898;4.902;2024-02-04T09:26:36;15.88;;;4.93;;
20653;SDS011;21083;50.898;4.902;2024-02-04T09:29:04;13.20;;;6.20;;
20653;SDS011;21083;50.898;4.902;2024-02-04T09:31:32;15.35;;;5.38;;
20653;SDS011;21083;50.898;4.902;2024-02-04T09:34:00;11.90;;;4.82;;
20653;SDS011;21083;50.898;4.902;2024-02-04T09:36:29;14.80;;;5.10;;
20653;SDS011;21083;50.898;4.902;2024-02-04T09:38:56;13.48;;;4.57;;
20653;SDS011;21083;50.898;4.902;2024-02-04T09:41:23;11.13;;;4.55;;
20653;SDS011;21083;50.898;4.902;2024-02-04T09:43:52;8.52;;;3.97;;
20653;SDS011;21083;50.898;4.902;2024-02-04T09:46:20;12.30;;;4.00;;
20653;SDS011;21083;50.898;4.902;2024-02-04T09:48:47;13.52;;;4.35;;
20653;SDS011;21083;50.898;4.902;2024-02-04T09:51:19;10.90;;;3.70;;
20653;SDS011;21083;50.898;4.902;2024-02-04T09:53:46;11.80;;;3.53;;
20653;SDS011;21083;50.898;4.902;2024-02-04T09:56:18;10.95;;;2.80;;
20653;SDS011;21083;50.898;4.902;2024-02-04T09:58:51;11.48;;;4.10;;
20653;SDS011;21083;50.898;4.902;2024-02-04T10:01:20;12.45;;;3.25;;
20653;SDS011;21083;50.898;4.902;2024-02-04T10:03:48;9.18;;;3.25;;
20653;SDS011;21083;50.898;4.902;2024-02-04T10:06:15;11.48;;;2.50;;
20653;SDS011;21083;50.898;4.902;2024-02-04T10:08:44;14.10;;;2.83;;
20653;SDS011;21083;50.898;4.902;2024-02-04T10:11:13;13.52;;;3.47;;
20653;SDS011;21083;50.898;4.902;2024-02-04T10:13:44;9.57;;;3.72;;
20653;SDS011;21083;50.898;4.902;2024-02-04T10:16:13;10.13;;;2.60;;
20653;SDS011;21083;50.898;4.902;2024-02-04T10:18:43;10.57;;;2.75;;
20653;SDS011;21083;50.898;4.902;2024-02-04T10:21:14;8.50;;;2.28;;
20653;SDS011;21083;50.898;4.902;2024-02-04T10:23:44;11.45;;;3.35;;
20653;SDS011;21083;50.898;4.902;2024-02-04T10:26:12;5.78;;;2.20;;
20653;SDS011;21083;50.898;4.902;2024-02-04T10:28:40;12.75;;;2.67;;
20653;SDS011;21083;50.898;4.902;2024-02-04T10:31:08;14.20;;;2.78;;
20653;SDS011;21083;50.898;4.902;2024-02-04T10:33:36;8.02;;;2.88;;
20653;SDS011;21083;50.898;4.902;2024-02-04T10:36:04;8.65;;;2.47;;
20653;SDS011;21083;50.898;4.902;2024-02-04T10:38:34;7.88;;;2.55;;
20653;SDS011;21083;50.898;4.902;2024-02-04T10:41:03;8.93;;;3.08;;
20653;SDS011;21083;50.898;4.902;2024-02-04T10:43:31;16.67;;;3.15;;
20653;SDS011;21083;50.898;4.902;2024-02-04T10:46:00;9.80;;;2.92;;
20653;SDS011;21083;50.898;4.902;2024-02-04T10:48:32;11.20;;;3.08;;
20653;SDS011;21083;50.898;4.902;2024-02-04T10:51:09;12.32;;;3.40;;
20653;SDS011;21083;50.898;4.902;2024-02-04T10:53:40;10.23;;;3.00;;
20653;SDS011;21083;50.898;4.902;2024-02-04T10:56:13;12.95;;;3.47;;
20653;SDS011;21083;50.898;4.902;2024-02-04T10:58:45;12.10;;;3.00;;
20653;SDS011;21083;50.898;4.902;2024-02-04T11:01:13;8.20;;;3.22;;
20653;SDS011;21083;50.898;4.902;2024-02-04T11:03:41;8.10;;;2.95;;
20653;SDS011;21083;50.898;4.902;2024-02-04T11:06:09;8.85;;;3.45;;
20653;SDS011;21083;50.898;4.902;2024-02-04T11:08:37;10.27;;;3.47;;
20653;SDS011;21083;50.898;4.902;2024-02-04T11:11:05;7.22;;;3.10;;
20653;SDS011;21083;50.898;4.902;2024-02-04T11:13:34;9.82;;;3.35;;
20653;SDS011;21083;50.898;4.902;2024-02-04T11:16:04;11.77;;;3.60;;
20653;SDS011;21083;50.898;4.902;2024-02-04T11:18:52;17.05;;;4.25;;
20653;SDS011;21083;50.898;4.902;2024-02-04T11:24:30;12.60;;;3.10;;
20653;SDS011;21083;50.898;4.902;2024-02-04T11:27:09;8.90;;;3.05;;
20653;SDS011;21083;50.898;4.902;2024-02-04T11:29:41;8.30;;;2.92;;
20653;SDS011;21083;50.898;4.902;2024-02-04T11:32:09;10.18;;;2.70;;
20653;SDS011;21083;50.898;4.902;2024-02-04T11:34:37;6.63;;;2.42;;
20653;SDS011;21083;50.898;4.902;2024-02-04T11:37:13;7.38;;;2.33;;
20653;SDS011;21083;50.898;4.902;2024-02-04T11:39:51;8.38;;;2.08;;
20653;SDS011;21083;50.898;4.902;2024-02-04T11:42:19;6.15;;;1.95;;
20653;SDS011;21083;50.898;4.902;2024-02-04T11:44:47;7.50;;;2.17;;
20653;SDS011;21083;50.898;4.902;2024-02-04T11:47:22;5.68;;;1.80;;
20653;SDS011;21083;50.898;4.902;2024-02-04T11:49:54;6.07;;;2.17;;
20653;SDS011;21083;50.898;4.902;2024-02-04T11:52:21;7.15;;;1.65;;
20653;SDS011;21083;50.898;4.902;2024-02-04T11:54:49;7.93;;;2.50;;
20653;SDS011;21083;50.898;4.902;2024-02-04T11:57:17;7.50;;;2.03;;
20653;SDS011;21083;50.898;4.902;2024-02-04T11:59:48;7.15;;;1.98;;
20653;SDS011;21083;50.898;4.902;2024-02-04T12:02:17;8.82;;;2.15;;
20653;SDS011;21083;50.898;4.902;2024-02-04T12:04:44;4.80;;;1.70;;
20653;SDS011;21083;50.898;4.902;2024-02-04T12:07:13;4.65;;;1.30;;
20653;SDS011;21083;50.898;4.902;2024-02-04T12:12:11;3.92;;;1.30;;
20653;SDS011;21083;50.898;4.902;2024-02-04T12:14:38;8.75;;;2.38;;
20653;SDS011;21083;50.898;4.902;2024-02-04T12:17:08;5.60;;;1.50;;
20653;SDS011;21083;50.898;4.902;2024-02-04T12:19:36;10.55;;;1.60;;
20653;SDS011;21083;50.898;4.902;2024-02-04T12:22:04;4.35;;;1.67;;
20653;SDS011;21083;50.898;4.902;2024-02-04T12:24:34;5.40;;;1.60;;
20653;SDS011;21083;50.898;4.902;2024-02-04T12:27:02;6.53;;;2.10;;
20653;SDS011;21083;50.898;4.902;2024-02-04T12:29:30;5.45;;;1.70;;
20653;SDS011;21083;50.898;4.902;2024-02-04T12:31:58;4.55;;;1.80;;
20653;SDS011;21083;50.898;4.902;2024-02-04T12:34:27;6.25;;;1.60;;
20653;SDS011;21083;50.898;4.902;2024-02-04T12:36:58;5.25;;;1.55;;
20653;SDS011;21083;50.898;4.902;2024-02-04T12:39:25;5.75;;;1.67;;
20653;SDS011;21083;50.898;4.902;2024-02-04T12:41:53;3.22;;;1.40;;
20653;SDS011;21083;50.898;4.902;2024-02-04T12:44:20;6.47;;;1.55;;
20653;SDS011;21083;50.898;4.902;2024-02-04T12:46:50;5.75;;;1.65;;
20653;SDS011;21083;50.898;4.902;2024-02-04T12:49:19;6.20;;;1.48;;
20653;SDS011;21083;50.898;4.902;2024-02-04T12:51:48;8.20;;;2.45;;
20653;SDS011;21083;50.898;4.902;2024-02-04T12:54:17;5.45;;;1.55;;
20653;SDS011;21083;50.898;4.902;2024-02-04T12:56:45;3.95;;;1.10;;
20653;SDS011;21083;50.898;4.902;2024-02-04T12:59:24;7.40;;;1.73;;
20653;SDS011;21083;50.898;4.902;2024-02-04T13:01:53;6.57;;;1.83;;
20653;SDS011;21083;50.898;4.902;2024-02-04T13:04:21;6.55;;;1.83;;
20653;SDS011;21083;50.898;4.902;2024-02-04T13:06:50;6.60;;;1.90;;
20653;SDS011;21083;50.898;4.902;2024-02-04T13:09:17;5.22;;;1.55;;
20653;SDS011;21083;50.898;4.902;2024-02-04T13:11:45;4.68;;;1.50;;
20653;SDS011;21083;50.898;4.902;2024-02-04T13:14:13;3.15;;;1.20;;
20653;SDS011;21083;50.898;4.902;2024-02-04T13:16:40;4.18;;;1.60;;
20653;SDS011;21083;50.898;4.902;2024-02-04T13:19:08;4.28;;;1.30;;
20653;SDS011;21083;50.898;4.902;2024-02-04T13:21:35;9.43;;;1.67;;
20653;SDS011;21083;50.898;4.902;2024-02-04T13:24:04;3.08;;;1.35;;
20653;SDS011;21083;50.898;4.902;2024-02-04T13:26:32;5.55;;;1.25;;
20653;SDS011;21083;50.898;4.902;2024-02-04T13:28:59;4.28;;;1.20;;
20653;SDS011;21083;50.898;4.902;2024-02-04T13:31:26;3.60;;;1.10;;
20653;SDS011;21083;50.898;4.902;2024-02-04T13:33:54;3.40;;;0.95;;
20653;SDS011;21083;50.898;4.902;2024-02-04T13:36:21;5.30;;;1.15;;
20653;SDS011;21083;50.898;4.902;2024-02-04T13:38:49;3.35;;;1.00;;
20653;SDS011;21083;50.898;4.902;2024-02-04T13:41:22;6.78;;;1.38;;
20653;SDS011;21083;50.898;4.902;2024-02-04T13:43:50;5.47;;;1.00;;
20653;SDS011;21083;50.898;4.902;2024-02-04T13:46:17;3.03;;;1.02;;
20653;SDS011;21083;50.898;4.902;2024-02-04T13:48:45;1.42;;;0.90;;
20653;SDS011;21083;50.898;4.902;2024-02-04T13:51:12;3.05;;;0.93;;
20653;SDS011;21083;50.898;4.902;2024-02-04T13:53:40;3.60;;;1.05;;
20653;SDS011;21083;50.898;4.902;2024-02-04T13:56:08;6.13;;;1.75;;
20653;SDS011;21083;50.898;4.902;2024-02-04T13:58:37;4.10;;;1.00;;
20653;SDS011;21083;50.898;4.902;2024-02-04T14:01:04;4.82;;;2.10;;
20653;SDS011;21083;50.898;4.902;2024-02-04T14:03:32;6.65;;;1.13;;
20653;SDS011;21083;50.898;4.902;2024-02-04T14:05:59;3.08;;;0.80;;
20653;SDS011;21083;50.898;4.902;2024-02-04T14:08:28;3.88;;;1.38;;
20653;SDS011;21083;50.898;4.902;2024-02-04T14:10:56;2.65;;;0.82;;
20653;SDS011;21083;50.898;4.902;2024-02-04T14:13:23;4.05;;;0.80;;
20653;SDS011;21083;50.898;4.902;2024-02-04T14:15:52;1.83;;;0.70;;
20653;SDS011;21083;50.898;4.902;2024-02-04T14:18:19;2.97;;;0.90;;
20653;SDS011;21083;50.898;4.902;2024-02-04T14:20:47;1.50;;;0.80;;
20653;SDS011;21083;50.898;4.902;2024-02-04T14:23:14;2.10;;;0.63;;
20653;SDS011;21083;50.898;4.902;2024-02-04T14:25:42;1.38;;;0.85;;
20653;SDS011;21083;50.898;4.902;2024-02-04T14:28:12;4.93;;;1.00;;
20653;SDS011;21083;50.898;4.902;2024-02-04T14:30:39;1.90;;;0.90;;
20653;SDS011;21083;50.898;4.902;2024-02-04T14:33:09;2.50;;;0.93;;
20653;SDS011;21083;50.898;4.902;2024-02-04T14:35:36;3.35;;;0.93;;
20653;SDS011;21083;50.898;4.902;2024-02-04T14:38:03;4.38;;;1.08;;
20653;SDS011;21083;50.898;4.902;2024-02-04T14:40:31;5.28;;;1.40;;
20653;SDS011;21083;50.898;4.902;2024-02-04T14:42:58;2.47;;;1.02;;
20653;SDS011;21083;50.898;4.902;2024-02-04T14:45:27;9.65;;;1.67;;
20653;SDS011;21083;50.898;4.902;2024-02-04T14:47:54;3.60;;;1.38;;
20653;SDS011;21083;50.898;4.902;2024-02-04T14:50:23;4.68;;;1.30;;